Flight Track Log - Related Links

Times and Time Zones

All times are in EDT time to prevent confusion due to time zone crossing. See the N53KV flight status page for this flight to view local times or setup timezone preferences in your user account.

Time Position Orientation Groundspeed Altitude Reporting Facility
EDT Latitude Longitude Course Direction KTS MPH feet Rate Location/Type
Wed 05:45:49 PM 36.2000 -86.8833 15° North 132 152 800  Level Nashville TRACON
Wed 05:46:44 PM 36.2500 -86.8667 15° North 227 261 2,200 2,452 Climbing Nashville TRACON
Wed 05:47:44 PM 36.3167 -86.8500 11° North 253 291 5,500 3,372 Climbing Nashville TRACON
Wed 05:48:45 PM 36.3325 -86.9383 283° West 234 269 9,000 2,975 Climbing Memphis Center
Wed 05:49:45 PM 36.3450 -87.0228 280° West 240 276 11,500 2,550 Climbing Memphis Center
Wed 05:50:45 PM 36.3744 -87.1067 294° West 263 303 14,100 2,550 Climbing Memphis Center
Wed 05:51:45 PM 36.4142 -87.1903 301° West 269 310 16,600 2,400 Climbing Memphis Center
Wed 05:52:45 PM 36.4494 -87.2664 300° West 269 310 18,900 2,200 Climbing Memphis Center
Wed 05:53:45 PM 36.4803 -87.3372 298° West 259 298 21,000 2,100 Climbing Memphis Center
Wed 05:54:45 PM 36.5153 -87.4058 302° West 254 292 23,100 1,800 Climbing Memphis Center
Wed 05:55:45 PM 36.5628 -87.4739 311° West 254 292 24,600 1,500 Climbing Memphis Center
Wed 05:56:45 PM 36.6381 -87.4867 352° North 243 280 26,100 1,550 Climbing Memphis Center
Wed 05:57:45 PM 36.7097 -87.5178 341° North 270 311 27,700 1,550 Climbing Memphis Center
Wed 05:58:45 PM 36.7897 -87.5486 343° North 270 311 29,200 1,350 Climbing Memphis Center
Wed 05:59:45 PM 36.8611 -87.5797 341° North 270 311 30,400 1,150 Climbing Memphis Center
Wed 06:00:45 PM 36.9369 -87.6108 342° North 270 311 31,500 1,050 Climbing Memphis Center
Wed 06:01:45 PM 37.0147 -87.6444 341° North 283 326 32,500 1,000 Climbing Memphis Center
Wed 06:02:45 PM 37.0925 -87.6758 342° North 293 337 33,500 1,050 Climbing Memphis Center
Wed 06:03:45 PM 37.1681 -87.7097 340° North 293 337 34,600 815 Climbing Memphis Center
Wed 06:05:49 PM 37.3242 -87.7750 342° North 294 338 36,000 452 Climbing Indianapolis Center
Wed 06:06:51 PM 37.4114 -87.8119 341° North 316 364 36,000  Level Indianapolis Center
Wed 06:07:53 PM 37.5008 -87.8536 340° North 334 384 36,000  Level Indianapolis Center
Wed 06:08:55 PM 37.5953 -87.8947 341° North 353 406 36,000  Level Indianapolis Center
Wed 06:09:57 PM 37.6917 -87.9383 340° North 362 417 36,000 48 Level Indianapolis Center
Wed 06:10:59 PM 37.7889 -87.9803 341° North 360 414 36,100 624 Climbing Indianapolis Center
Wed 06:12:02 PM 37.8811 -88.0219 340° North 349 402 37,300 912 Climbing Indianapolis Center
Wed 06:13:04 PM 37.9847 -88.0669 341° North 333 383 38,000 339 Climbing Kansas City Center
Wed 06:14:06 PM 38.0742 -88.1081 340° North 334 384 38,000  Level Kansas City Center
Wed 06:15:09 PM 38.1678 -88.1486 341° North 345 397 38,000  Level Kansas City Center
Wed 06:16:11 PM 38.2636 -88.1911 341° North 355 409 38,000  Level Kansas City Center
Wed 06:17:13 PM 38.3600 -88.2344 341° North 361 415 38,000  Level Kansas City Center
Wed 06:18:15 PM 38.4583 -88.2778 341° North 366 421 38,000  Level Kansas City Center
Wed 06:19:17 PM 38.5567 -88.3231 340° North 370 426 38,000  Level Kansas City Center
Wed 06:20:19 PM 38.6742 -88.3758 341° North 371 427 38,000  Level Kansas City Center
Wed 06:21:21 PM 38.7711 -88.4194 341° North 369 425 38,000  Level Kansas City Center
Wed 06:22:23 PM 38.8686 -88.4625 341° North 368 423 38,000  Level Kansas City Center
Wed 06:23:25 PM 38.9667 -88.5072 340° North 369 425 38,000  Level Kansas City Center
Wed 06:24:27 PM 39.0650 -88.5506 341° North 371 427 38,000  Level Kansas City Center
Wed 06:25:29 PM 39.1622 -88.5967 340° North 371 427 38,000  Level Kansas City Center
Wed 06:26:31 PM 39.2725 -88.6464 341° North 367 422 38,000  Level Kansas City Center
Wed 06:27:33 PM 39.3683 -88.6911 340° North 366 421 38,000  Level Kansas City Center
Wed 06:28:35 PM 39.4564 -88.7306 341° North 369 425 38,000  Level Kansas City Center
Wed 06:29:37 PM 39.5708 -88.7831 341° North 367 422 38,000  Level Kansas City Center
Wed 06:30:39 PM 39.6664 -88.8286 340° North 365 420 38,000  Level Kansas City Center
Wed 06:31:41 PM 39.7622 -88.8714 341° North 365 420 38,000  Level Kansas City Center
Wed 06:32:43 PM 39.8581 -88.9153 341° North 365 420 38,000  Level Kansas City Center
Wed 06:33:45 PM 39.9536 -88.9617 340° North 366 421 38,000  Level Kansas City Center
Wed 06:34:47 PM 40.0494 -89.0067 340° North 365 420 38,000  Level Kansas City Center
Wed 06:35:49 PM 40.1639 -89.0603 340° North 365 420 38,000  Level Kansas City Center
Wed 06:36:51 PM 40.2606 -89.1056 340° North 367 422 38,000  Level Kansas City Center
Wed 06:37:53 PM 40.3556 -89.1519 340° North 366 421 38,000  Level Chicago Center
Wed 06:38:56 PM 40.4536 -89.1978 340° North 372 428 38,000  Level Chicago Center
Wed 06:39:58 PM 40.5503 -89.2444 340° North 372 428 38,000  Level Chicago Center
Wed 06:41:00 PM 40.6478 -89.2911 340° North 374 430 38,000  Level Chicago Center
Wed 06:42:02 PM 40.7658 -89.3478 340° North 378 435 38,000  Level Chicago Center
Wed 06:43:04 PM 40.8633 -89.3944 340° North 377 434 38,000  Level Chicago Center
Wed 06:44:06 PM 40.9611 -89.4417 340° North 377 434 38,000  Level Chicago Center
Wed 06:45:08 PM 41.0597 -89.4881 340° North 378 435 38,000  Level Chicago Center
Wed 06:46:10 PM 41.1781 -89.5450 340° North 379 436 38,000  Level Chicago Center
Wed 06:47:12 PM 41.2772 -89.5936 340° North 380 437 38,000  Level Chicago Center
Wed 06:48:14 PM 41.3758 -89.6428 339° North 381 438 38,000  Level Chicago Center
Wed 06:49:16 PM 41.4756 -89.6914 340° North 382 440 38,000  Level Chicago Center
Wed 06:50:18 PM 41.5758 -89.7403 340° North 382 440 38,000  Level Chicago Center
Wed 06:51:21 PM 41.6753 -89.7906 339° North 384 442 38,000  Level Chicago Center
Wed 06:52:23 PM 41.7956 -89.8506 340° North 383 441 38,000  Level Chicago Center
Wed 06:53:25 PM 41.8925 -89.8992 340° North 373 429 38,000  Level Chicago Center
Wed 06:54:27 PM 41.9992 -89.9494 341° North 389 448 38,000  Level Chicago Center
Wed 06:55:29 PM 42.0969 -90.0031 338° Northwest 387 445 38,000  Level Chicago Center
Wed 06:56:31 PM 42.1975 -90.0531 340° North 389 448 38,000  Level Chicago Center
Wed 06:57:33 PM 42.2956 -90.1036 339° North 384 442 38,000  Level Chicago Center
Wed 06:58:35 PM 42.4114 -90.1625 339° North 375 432 38,000  Level Chicago Center
Wed 06:59:37 PM 42.5111 -90.2117 340° North 381 438 38,000  Level Chicago Center
Wed 07:00:39 PM 42.6092 -90.2622 339° North 382 440 38,000 -97 Level Chicago Center
Wed 07:01:41 PM 42.7064 -90.3117 340° North 379 436 37,800 -576 Descending Chicago Center
Wed 07:02:44 PM 42.8272 -90.3739 339° North 386 444 36,800 -912 Descending Chicago Center
Wed 07:03:46 PM 42.9333 -90.4283 339° North 404 465 35,900 -823 Descending Chicago Center
Wed 07:04:48 PM 43.0386 -90.4825 339° North 409 471 35,100 -774 Descending Chicago Center
Wed 07:05:50 PM 43.1417 -90.5361 339° North 404 465 34,300 -823 Descending Chicago Center
Wed 07:06:52 PM 43.2436 -90.5892 339° North 400 460 33,400 -896 Descending Chicago Center
Wed 07:08:04 PM 43.3906 -90.6658 339° North 406 467 32,300 -627 Descending Minneapolis Center
Wed 07:09:06 PM 43.4958 -90.7206 339° North 408 470 32,000 -145 Descending Minneapolis Center
Wed 07:10:08 PM 43.5956 -90.7728 339° North 394 453 32,000  Level Minneapolis Center
Wed 07:11:10 PM 43.6950 -90.8250 339° North 389 448 32,000 -484 Level Minneapolis Center
Wed 07:12:12 PM 43.7939 -90.8781 339° North 385 443 31,000 -1,500 Descending Minneapolis Center
Wed 07:13:14 PM 43.9194 -90.9442 339° North 404 465 28,900 -1,839 Descending Minneapolis Center
Wed 07:14:16 PM 44.0244 -91.0022 338° Northwest 409 471 27,200 -1,645 Descending Minneapolis Center
Wed 07:15:18 PM 44.1258 -91.0558 339° North 400 460 25,500 -1,694 Descending Minneapolis Center
Wed 07:16:20 PM 44.2231 -91.1086 339° North 386 444 23,700 -1,756 Descending Minneapolis Center
Wed 07:17:21 PM 44.3281 -91.1650 339° North 375 432 21,900 -1,756 Descending Minneapolis Center
Wed 07:18:23 PM 44.4217 -91.2175 338° Northwest 368 423 20,100 -1,839 Descending Minneapolis Center
Wed 07:19:25 PM 44.5089 -91.3033 325° Northwest 350 403 18,100 -1,645 Descending Minneapolis Center
Wed 07:20:27 PM 44.5933 -91.3706 330° Northwest 335 386 16,700 -1,548 Descending Minneapolis Center
Wed 07:21:29 PM 44.6733 -91.4317 331° Northwest 315 362 14,900 -1,742 Descending Minneapolis Center
Wed 07:22:31 PM 44.7450 -91.4944 328° Northwest 293 337 13,100 -1,790 Descending Minneapolis Center
Wed 07:23:33 PM 44.8169 -91.5578 328° Northwest 291 335 11,200 -1,742 Descending Minneapolis Center
Wed 07:24:35 PM 44.8792 -91.6161 326° Northwest 283 326 9,500 -1,548 Descending Minneapolis Center
Wed 07:25:37 PM 44.9358 -91.6700 326° Northwest 276 318 8,000 -1,742 Descending Minneapolis Center
Wed 07:26:39 PM 45.0006 -91.7528 318° Northwest 270 311 5,900 -1,887 Descending Minneapolis Center
Wed 07:27:41 PM 45.0517 -91.8144 320° Northwest 260 299 4,100 -968 Descending Minneapolis Center
Wed 07:28:43 PM 45.1006 -91.8433 337° Northwest 223 257 3,900 -98 Descending Minneapolis Center
Wed 07:29:44 PM 45.1442 -91.8500 354° North 191 220 3,900  Level Minneapolis Center
Wed 07:30:46 PM 45.1872 -91.8372 12° North 169 194 3,900  Level Minneapolis Center
Wed 07:31:48 PM 45.2283 -91.8264 11° North 160 184 3,900  Level Minneapolis Center
Wed 07:32:50 PM 45.2781 -91.8117 12° North 155 178 3,900 -339 Level Minneapolis Center
Wed 07:33:52 PM 45.3125 -91.8022 11° North 145 167 3,200 -387 Descending Minneapolis Center
Wed 07:34:54 PM 45.3442 -91.7961 North 140 161 3,100 -97 Descending Minneapolis Center
Wed 07:36:00 PM 45.4167 -91.7667 North  Level FlightAware Approximate
Wed 07:43:00 PM 45.4201 -91.7733 North  Level Estimated
Wed 07:44:00 PM 45.4167 -91.7667 North  Level FlightAware Approximate
Wed 07:45:00 PM 45.4201 -91.7733 North  Level Estimated
Wed 07:46:00 PM 45.4167 -91.7667 North  Level FlightAware Approximate
Wed 07:47:00 PM 45.4201 -91.7733 North  Level Estimated
Wed 07:48:00 PM 45.4167 -91.7667 North  Level FlightAware Approximate
Wed 07:49:00 PM 45.4201 -91.7733 North  Level Estimated
Wed 07:50:00 PM 45.4167 -91.7667 North  Level FlightAware Approximate

Login

Don't have an account? Register now (free) for customized features, flight alerts, and more!